Pampa, Texas
Current Conditions -  °F | °C
As of 7:35 AM on Sunday 23 Nov 2014 (Local Time) from KPPA Reporting Station
Clear Clear  
Wind Chill: 35°   Ceiling: Unl
Heat Index: 41°   Visibility: 10mi
Dew Point: 26°   Wind: 10mph
Humidity: 54%   Direction: 280°W
Pressure: 29.48"   Gusts: NA
Location:  35.53°N, 100.95°W
Report Text: KPPA 231335Z AUTO 28009KT 10SM CLR 05/M03 A2948 RMK AO2 T00521035 PNO
Loading
Personal Weather Stations






























Interactive Weather Map New forecast layout! Learn more

10-Day Weather Forecast

Advertisements
Track Severe Weather on mobile